Flight Track Log - Related Links

Times and Time Zones

All times are in EDT time to prevent confusion due to time zone crossing. See the N34VR flight status page for this flight to view local times or setup timezone preferences in your user account.

Time Position Orientation Groundspeed Altitude Reporting Facility
EDT Latitude Longitude Course Direction KTS MPH feet Rate Location/Type
Tue 09:34:55 AM 26.2003 -80.1308 83° East 175 201 1,900  Level Miami Center
Tue 09:35:38 AM 26.2058 -80.0800 83° East 245 282 2,100 231 Climbing Miami Center
Tue 09:36:39 AM 26.2139 -79.9947 84° East 271 312 2,300 500 Climbing Miami Center
Tue 09:37:14 AM 26.2231 -79.9531 76° East 260 299 2,900 2,147 Climbing Miami Center
Tue 09:38:14 AM 26.2331 -79.8725 82° East 266 306 5,700 2,650 Climbing Miami Center
Tue 09:39:14 AM 26.2453 -79.7917 80° East 302 348 8,200 2,500 Climbing Miami Center
Tue 09:40:14 AM 26.2553 -79.6992 83° East 296 341 10,700 2,350 Climbing Miami Center
Tue 09:41:14 AM 26.2675 -79.6069 82° East 296 341 12,900 2,250 Climbing Miami Center
Tue 09:42:14 AM 26.2800 -79.5006 83° East 301 346 15,200 2,000 Climbing Miami Center
Tue 09:43:14 AM 26.2775 -79.4100 92° East 317 365 16,900 1,650 Climbing Miami Center
Tue 09:44:14 AM 26.2139 -79.3392 135° Southeast 286 329 18,500 1,700 Climbing Miami Center
Tue 09:45:14 AM 26.1356 -79.2797 146° Southeast 308 354 20,300 1,750 Climbing Miami Center
Tue 09:46:14 AM 26.0550 -79.2181 145° Southeast 333 383 22,000 1,650 Climbing Miami Center
Tue 09:47:14 AM 25.9789 -79.1472 140° Southeast 351 404 23,600 1,600 Climbing Miami Center
Tue 09:48:14 AM 25.9006 -79.0717 139° Southeast 364 419 25,200 1,550 Climbing Miami Center
Tue 09:49:14 AM 25.8203 -78.9894 137° Southeast 381 438 26,700 1,550 Climbing Miami Center
Tue 09:50:14 AM 25.7378 -78.9119 140° Southeast 386 444 28,300 1,550 Climbing Miami Center
Tue 09:51:14 AM 25.6511 -78.8275 139° Southeast 398 458 29,800 1,450 Climbing Miami Center
Tue 09:52:14 AM 25.5606 -78.7408 139° Southeast 409 471 31,200 1,550 Climbing Miami Center
Tue 09:53:14 AM 25.4717 -78.6567 139° Southeast 421 484 32,900 1,500 Climbing Miami Center
Tue 09:54:14 AM 25.3808 -78.5656 138° Southeast 427 491 34,200 1,300 Climbing Miami Center
Tue 09:55:14 AM 25.2856 -78.4744 139° Southeast 437 503 35,500 1,200 Climbing Miami Center
Tue 09:56:14 AM 25.1906 -78.3814 138° Southeast 449 517 36,600 1,150 Climbing Miami Center
Tue 09:57:14 AM 25.0953 -78.2883 138° Southeast 454 522 37,800 1,250 Climbing Miami Center
Tue 09:58:14 AM 25.0022 -78.1819 134° Southeast 459 528 39,100 1,500 Climbing Miami Center
Tue 09:59:14 AM 24.9111 -78.0778 134° Southeast 466 536 40,800 1,450 Climbing Miami Center
Tue 10:00:14 AM 24.8222 -77.9739 133° Southeast 466 536 42,000 1,100 Climbing Miami Center
Tue 10:01:14 AM 24.7331 -77.8725 134° Southeast 460 529 43,000 1,150 Climbing Miami Center
Tue 10:02:14 AM 24.6439 -77.7733 135° Southeast 460 529 44,300 800 Climbing Miami Center
Tue 10:03:14 AM 24.5544 -77.6744 135° Southeast 460 529 44,600 350 Climbing Miami Center
Tue 10:04:14 AM 24.4653 -77.5758 135° Southeast 460 529 45,000 200 Climbing Miami Center
Tue 10:05:14 AM 24.3736 -77.4794 136° Southeast 460 529 45,000  Level Miami Center
Tue 10:06:14 AM 24.2800 -77.3764 135° Southeast 460 529 45,000  Level Miami Center
Tue 10:07:14 AM 24.1842 -77.2733 136° Southeast 471 542 45,000  Level Miami Center
Tue 10:08:14 AM 24.0883 -77.1661 134° Southeast 477 549 45,000  Level Miami Center
Tue 10:09:14 AM 23.9922 -77.0636 136° Southeast 483 556 45,000  Level Miami Center
Tue 10:10:14 AM 23.8983 -76.9544 133° Southeast 483 556 45,000  Level Miami Center
Tue 10:11:14 AM 23.8086 -76.8497 133° Southeast 483 556 45,000  Level Miami Center
Tue 10:12:14 AM 23.7103 -76.7386 134° Southeast 483 556 45,000  Level Miami Center
Tue 10:13:14 AM 23.6161 -76.6344 135° Southeast 460 529 45,000  Level Miami Center
Tue 10:14:14 AM 23.5219 -76.5281 134° Southeast 476 548 45,000  Level Miami Center
Tue 10:15:14 AM 23.4256 -76.4219 135° Southeast 488 562 45,000  Level Miami Center
Tue 10:16:14 AM 23.3183 -76.3022 134° Southeast 493 567 45,000  Level Miami Center
Tue 10:17:14 AM 23.2239 -76.1964 134° Southeast 493 567 45,000  Level Miami Center
Tue 10:18:14 AM 23.1294 -76.0931 135° Southeast 487 560 45,000  Level Miami Center
Tue 10:19:14 AM 23.0347 -75.9853 134° Southeast 487 560 45,000  Level Miami Center
Tue 10:20:14 AM 22.9464 -75.8753 131° Southeast 487 560 45,000  Level Miami Center
Tue 10:21:14 AM 22.8456 -75.7792 139° Southeast 475 547 45,000  Level Miami Center
Tue 10:22:14 AM 22.7506 -75.6764 135° Southeast 475 547 45,000  Level Miami Center
Tue 10:23:14 AM 22.6558 -75.5736 135° Southeast 480 552 45,000  Level Miami Center
Tue 10:24:14 AM 22.5586 -75.4689 135° Southeast 486 559 45,000  Level Miami Center
Tue 10:25:14 AM 22.4617 -75.3667 136° Southeast 486 559 45,000  Level Miami Center
Tue 10:26:14 AM 22.3644 -75.2622 135° Southeast 486 559 45,000  Level Miami Center
Tue 10:27:14 AM 22.2672 -75.1578 135° Southeast 486 559 45,000  Level Miami Center
Tue 10:28:14 AM 22.1700 -75.0558 136° Southeast 486 559 45,000  Level Miami Center
Tue 10:29:14 AM 22.0686 -74.9611 139° Southeast 486 559 45,000  Level Miami Center
Tue 10:30:14 AM 21.9631 -74.8686 141° Southeast 486 559 45,000  Level Miami Center
Tue 10:31:14 AM 21.8594 -74.7717 139° Southeast 491 565 45,000  Level Miami Center
Tue 10:32:14 AM 21.7558 -74.6772 140° Southeast 491 565 45,000  Level Miami Center
Tue 10:33:14 AM 21.6689 -74.5914 137° Southeast 485 558 45,000  Level Miami Center
Tue 10:34:14 AM 21.5650 -74.4950 139° Southeast 485 558 45,000  Level Miami Center
Tue 10:35:14 AM 21.4614 -74.4008 140° Southeast 491 565 45,000  Level Miami Center
Tue 10:36:14 AM 21.3575 -74.3047 139° Southeast 491 565 45,000  Level Miami Center
Tue 10:37:14 AM 21.2556 -74.2153 141° Southeast 491 565 45,000 -50 Level Miami Center
Tue 10:38:14 AM 21.1517 -74.1194 139° Southeast 491 565 44,900  Descending Miami Center
Tue 10:39:14 AM 21.0392 -74.0172 140° Southeast 491 565 45,000 50 Climbing Miami Center
Tue 10:40:14 AM 20.9372 -73.9239 139° Southeast 486 559 45,000  Level Miami Center
Tue 10:41:14 AM 20.8331 -73.8283 139° Southeast 486 559 45,000  Level Miami Center
Tue 10:42:14 AM 20.7333 -73.7353 139° Southeast 491 565 45,000  Level Miami Center
Tue 10:43:14 AM 20.6292 -73.6425 140° Southeast 491 565 45,000 -50 Level Miami Center
Tue 10:44:14 AM 20.5128 -73.5719 150° Southeast 485 558 44,900 -50 Descending Miami Center
Tue 10:45:14 AM 20.3986 -73.5017 150° Southeast 478 550 44,900 50 Level Miami Center
Tue 10:46:14 AM 20.2867 -73.4314 150° Southeast 478 550 45,000 50 Climbing Miami Center
Tue 10:47:14 AM 20.1703 -73.3636 151° Southeast 478 550 45,000  Level Miami Center
Tue 10:48:14 AM 20.0561 -73.2917 149° Southeast 478 550 45,000  Level Miami Center
Tue 10:50:00 AM 19.8646 -73.1764 150° Southeast  Level FlightAware Approximate
Tue 10:57:00 AM 19.1052 -72.7221 151° Southeast  Level FlightAware Approximate
Tue 10:58:00 AM 18.9966 -72.6576 151° Southeast  Level FlightAware Approximate
Tue 10:59:00 AM 18.8880 -72.5931 151° Southeast  Level FlightAware Approximate
Tue 11:00:00 AM 18.7793 -72.5287 151° Southeast  Level FlightAware Approximate
Tue 11:01:00 AM 18.6707 -72.4644 151° Southeast  Level FlightAware Approximate
Tue 11:02:00 AM 18.5620 -72.4002 151° Southeast  Level FlightAware Approximate
Tue 11:03:00 AM 18.4533 -72.3361 151° Southeast  Level FlightAware Approximate
Tue 11:04:00 AM 18.3446 -72.2720 151° Southeast  Level FlightAware Approximate
Tue 11:05:00 AM 18.2358 -72.2081 151° Southeast  Level FlightAware Approximate
Tue 11:06:00 AM 18.1271 -72.1442 151° Southeast  Level FlightAware Approximate
Tue 11:07:00 AM 18.0183 -72.0804 151° Southeast  Level FlightAware Approximate
Tue 11:08:00 AM 17.9095 -72.0166 151° Southeast  Level FlightAware Approximate
Tue 11:09:00 AM 17.8007 -71.9530 151° Southeast  Level FlightAware Approximate
Tue 11:10:00 AM 17.6919 -71.8894 151° Southeast  Level FlightAware Approximate
Tue 11:11:00 AM 17.5830 -71.8259 151° Southeast  Level FlightAware Approximate
Tue 11:12:00 AM 17.4741 -71.7625 151° Southeast  Level FlightAware Approximate
Tue 11:13:00 AM 17.3637 -71.6984 153° Southeast  Level FlightAware Approximate
Tue 11:14:00 AM 17.2530 -71.6385 153° Southeast  Level FlightAware Approximate
Tue 11:15:00 AM 17.1423 -71.5788 153° Southeast  Level FlightAware Approximate
Tue 11:16:00 AM 17.0316 -71.5191 153° Southeast  Level FlightAware Approximate
Tue 11:17:00 AM 16.9209 -71.4595 153° Southeast  Level FlightAware Approximate
Tue 11:18:00 AM 16.8101 -71.3999 153° Southeast  Level FlightAware Approximate
Tue 11:19:00 AM 16.6993 -71.3404 153° Southeast  Level FlightAware Approximate
Tue 11:20:00 AM 16.5886 -71.2810 153° Southeast  Level FlightAware Approximate
Tue 11:21:00 AM 16.4778 -71.2217 153° Southeast  Level FlightAware Approximate
Tue 11:22:00 AM 16.3669 -71.1624 153° Southeast  Level FlightAware Approximate
Tue 11:23:00 AM 16.2561 -71.1032 153° Southeast  Level FlightAware Approximate
Tue 11:24:00 AM 16.1453 -71.0441 153° Southeast  Level FlightAware Approximate
Tue 11:25:00 AM 16.0344 -70.9850 153° Southeast  Level FlightAware Approximate
Tue 11:26:00 AM 15.9233 -70.9265 153° Southeast  Level FlightAware Approximate
Tue 11:27:00 AM 15.8120 -70.8683 153° Southeast  Level FlightAware Approximate
Tue 11:28:00 AM 15.7007 -70.8102 153° Southeast  Level FlightAware Approximate
Tue 11:29:00 AM 15.5894 -70.7522 153° Southeast  Level FlightAware Approximate
Tue 11:30:00 AM 15.4781 -70.6942 153° Southeast  Level FlightAware Approximate
Tue 11:31:00 AM 15.3667 -70.6363 153° Southeast  Level FlightAware Approximate
Tue 11:32:00 AM 15.2554 -70.5785 153° Southeast  Level FlightAware Approximate
Tue 11:33:00 AM 15.1440 -70.5207 153° Southeast  Level FlightAware Approximate
Tue 11:34:00 AM 15.0326 -70.4629 153° Southeast  Level FlightAware Approximate
Tue 11:35:00 AM 14.9212 -70.4053 153° Southeast  Level FlightAware Approximate
Tue 11:36:00 AM 14.8098 -70.3476 153° Southeast  Level FlightAware Approximate
Tue 11:37:00 AM 14.6984 -70.2901 153° Southeast  Level FlightAware Approximate
Tue 11:38:00 AM 14.5869 -70.2326 153° Southeast  Level FlightAware Approximate
Tue 11:39:00 AM 14.4755 -70.1752 153° Southeast  Level FlightAware Approximate
Tue 11:40:00 AM 14.3640 -70.1178 153° Southeast  Level FlightAware Approximate
Tue 11:41:00 AM 14.2525 -70.0605 154° Southeast  Level FlightAware Approximate
Tue 11:42:00 AM 14.1410 -70.0032 154° Southeast  Level FlightAware Approximate
Tue 11:43:00 AM 14.0295 -69.9460 154° Southeast  Level FlightAware Approximate
Tue 11:44:00 AM 13.9180 -69.8888 154° Southeast  Level FlightAware Approximate
Tue 11:45:00 AM 13.8065 -69.8317 154° Southeast  Level FlightAware Approximate
Tue 11:46:00 AM 13.6949 -69.7747 154° Southeast  Level FlightAware Approximate
Tue 11:47:00 AM 13.5834 -69.7177 154° Southeast  Level FlightAware Approximate
Tue 11:48:00 AM 13.4718 -69.6608 154° Southeast  Level FlightAware Approximate
Tue 11:49:00 AM 13.3602 -69.6039 154° Southeast  Level FlightAware Approximate
Tue 11:50:00 AM 13.2486 -69.5471 154° Southeast  Level FlightAware Approximate
Tue 11:51:00 AM 13.1370 -69.4903 154° Southeast  Level FlightAware Approximate
Tue 11:52:00 AM 13.0253 -69.4336 154° Southeast  Level FlightAware Approximate
Tue 11:53:00 AM 12.9137 -69.3769 154° Southeast  Level FlightAware Approximate
Tue 11:54:00 AM 12.8020 -69.3203 154° Southeast  Level FlightAware Approximate
Tue 11:55:00 AM 12.6904 -69.2637 154° Southeast  Level FlightAware Approximate
Tue 11:56:00 AM 12.5787 -69.2072 154° Southeast  Level FlightAware Approximate
Tue 11:57:00 AM 12.4670 -69.1507 154° Southeast  Level FlightAware Approximate
Tue 11:58:00 AM 12.3555 -69.0939 152° Southeast  Level FlightAware Approximate
Tue 11:59:00 AM 12.2456 -69.0339 152° Southeast  Level FlightAware Approximate
Tue 12:00:00 PM 12.1447 -68.9614 136° Southeast  Level FlightAware Approximate
Tue 12:01:00 PM 12.0557 -68.8723 136° Southeast  Level FlightAware Approximate
Tue 12:02:00 PM 11.9658 -68.7842 139° Southeast  Level FlightAware Approximate
Tue 12:03:00 PM 11.8723 -68.7001 139° Southeast  Level FlightAware Approximate
Tue 12:04:00 PM 11.7807 -68.6140 136° Southeast  Level FlightAware Approximate
Tue 12:05:00 PM 11.6917 -68.5250 136° Southeast  Level FlightAware Approximate
Tue 12:06:00 PM 11.5950 -68.4450 136° Southeast  Level FlightAware Approximate
Tue 12:07:00 PM 11.5142 -68.3492 138° Southeast  Level FlightAware Approximate
Tue 12:08:00 PM 11.4212 -68.2647 138° Southeast  Level FlightAware Approximate
Tue 12:09:00 PM 11.3282 -68.1802 138° Southeast  Level FlightAware Approximate
Tue 12:10:00 PM 11.2352 -68.0956 138° Southeast  Level FlightAware Approximate
Tue 12:11:00 PM 11.1427 -68.0106 137° Southeast  Level FlightAware Approximate
Tue 12:12:00 PM 11.0517 -67.9240 137° Southeast  Level FlightAware Approximate
Tue 12:13:00 PM 10.9606 -67.8374 137° Southeast  Level FlightAware Approximate
Tue 12:14:00 PM 10.8695 -67.7510 137° Southeast  Level FlightAware Approximate
Tue 12:15:00 PM 10.7797 -67.6630 135° Southeast  Level FlightAware Approximate
Tue 12:16:00 PM 10.6864 -67.5798 147° Southeast  Level FlightAware Approximate
Tue 12:17:00 PM 10.6574 -67.4644 95° East  Level FlightAware Approximate
Tue 12:18:00 PM 10.6455 -67.3382 96° East  Level FlightAware Approximate
Tue 12:19:00 PM 10.6333 -67.2121 90° East  Level FlightAware Approximate
Tue 12:20:00 PM 10.6167 -67.0895 90° East  Level FlightAware Approximate
Tue 12:21:00 PM 10.6031 -66.9906 90° East  Level Estimated
Tue 12:22:00 PM 10.6031 -66.9906 90° East  Level Estimated
Tue 12:23:00 PM 10.6031 -66.9906 90° East  Level Estimated
Tue 12:24:00 PM 10.6031 -66.9906 90° East  Level Estimated
Tue 12:25:00 PM 10.6031 -66.9906 90° East  Level Estimated
Tue 12:26:00 PM 10.6031 -66.9906 90° East  Level Estimated
Tue 12:27:00 PM 10.6031 -66.9906 90° East  Level Estimated
Tue 12:28:00 PM 10.6031 -66.9906 90° East  Level Estimated
Tue 12:29:00 PM 10.6031 -66.9906 90° East  Level Estimated
Tue 12:30:00 PM 10.6031 -66.9906 90° East  Level Estimated
Tue 12:31:00 PM 10.6031 -66.9906 90° East  Level Estimated
Tue 12:32:00 PM 10.6031 -66.9906 90° East  Level Estimated
Tue 12:33:00 PM 10.6031 -66.9906 90° East  Level Estimated
Tue 12:34:00 PM 10.6031 -66.9906 90° East  Level Estimated
Tue 12:35:00 PM 10.6031 -66.9906 90° East  Level Estimated
Tue 12:36:00 PM 10.6031 -66.9906 90° East  Level Estimated
Tue 12:37:00 PM 10.6031 -66.9906 90° East  Level Estimated

Login

Don't have an account? Register now (free) for customized features, flight alerts, and more!